createdAt,value
2018-07-26T15:14:25.895Z,48.02
2018-07-26T15:15:04.884Z,47.83
2018-07-26T15:16:58.919Z,48.12
2018-07-26T15:17:58.901Z,48.61
2018-07-26T15:19:52.045Z,48.71
2018-07-26T15:20:52.038Z,48.80
2018-07-26T15:22:44.935Z,49.00
2018-07-26T15:23:44.921Z,48.51
2018-07-26T15:25:37.804Z,48.80
2018-07-26T15:26:37.796Z,49.29
2018-07-26T15:27:37.794Z,49.10
2018-07-26T15:28:37.791Z,49.10
2018-07-26T15:29:37.789Z,48.71
2018-07-26T15:30:37.782Z,48.80
2018-07-26T15:31:37.778Z,48.83
2018-07-26T15:32:37.778Z,48.83
2018-07-26T15:33:37.772Z,49.19
2018-07-26T15:34:37.769Z,49.10
2018-07-26T15:35:37.764Z,48.80
2018-07-26T15:36:37.768Z,49.10
2018-07-26T15:37:37.789Z,49.02
2018-07-26T15:38:37.757Z,49.10
2018-07-26T15:39:37.752Z,49.10
2018-07-26T15:40:37.749Z,49.00
2018-07-26T15:41:37.752Z,48.90
2018-07-26T15:42:37.745Z,48.90
2018-07-26T15:43:37.747Z,48.90
2018-07-26T15:44:37.783Z,48.80
2018-07-26T15:45:37.735Z,48.71
2018-07-26T15:46:37.736Z,48.90
2018-07-26T15:47:37.724Z,48.80
2018-07-26T15:48:37.727Z,49.00
2018-07-26T15:49:37.725Z,48.90
2018-07-26T15:50:37.719Z,49.02
2018-07-26T15:51:37.718Z,48.80
2018-07-26T15:52:37.710Z,49.00
2018-07-26T15:53:37.708Z,49.00
2018-07-26T15:54:37.707Z,49.02
2018-07-26T15:55:37.762Z,49.12
2018-07-26T15:56:37.701Z,49.10
2018-07-26T15:57:37.699Z,49.19
2018-07-26T15:58:37.700Z,49.10
2018-07-26T15:59:37.689Z,49.22
2018-07-26T16:00:37.686Z,49.29
2018-07-26T16:01:37.683Z,49.49
2018-07-26T16:02:37.681Z,49.78
2018-07-26T16:03:37.742Z,49.88
2018-07-26T16:04:37.674Z,49.58
2018-07-26T16:05:37.671Z,49.68
2018-07-26T16:06:37.668Z,49.68
2018-07-26T16:07:37.662Z,49.68
2018-07-26T16:08:37.660Z,49.49
2018-07-26T16:09:37.659Z,49.58
2018-07-26T16:10:37.656Z,49.39
2018-07-26T16:11:37.654Z,49.49
2018-07-26T16:12:37.648Z,50.07
2018-07-26T16:13:37.648Z,49.88
2018-07-26T16:14:37.648Z,49.68
2018-07-26T16:15:37.639Z,49.88
2018-07-26T16:16:37.638Z,49.68
2018-07-26T16:17:37.722Z,49.98
2018-07-26T16:18:37.630Z,49.88
2018-07-26T16:19:37.623Z,49.98
2018-07-26T16:20:37.623Z,50.26
2018-07-26T16:21:37.618Z,50.07
2018-07-26T16:22:37.616Z,50.56
2018-07-26T16:23:37.610Z,50.46
2018-07-26T16:24:37.610Z,50.16
2018-07-26T16:25:37.611Z,50.16
2018-07-26T16:26:37.608Z,50.26
2018-07-26T16:27:37.603Z,50.16
2018-07-26T16:28:37.640Z,50.36
2018-07-26T16:29:37.596Z,50.26
2018-07-26T16:30:37.591Z,50.36
2018-07-26T16:31:37.587Z,50.56
2018-07-26T16:32:37.585Z,50.26
2018-07-26T16:33:37.582Z,50.16
2018-07-26T16:34:37.582Z,50.16
2018-07-26T16:35:37.576Z,50.36
2018-07-26T16:36:37.574Z,50.36
2018-07-26T16:37:37.570Z,50.36
2018-07-26T16:38:37.564Z,50.46
2018-07-26T16:39:37.564Z,50.56
2018-07-26T16:40:37.583Z,50.46
2018-07-26T16:41:37.557Z,50.36
2018-07-26T16:42:37.555Z,50.46
2018-07-26T16:43:37.548Z,50.36
2018-07-26T16:44:37.546Z,50.36
2018-07-26T16:45:37.544Z,50.56
2018-07-26T16:46:37.542Z,50.65
2018-07-26T16:47:37.530Z,50.85
2018-07-26T16:48:37.536Z,50.34
2018-07-26T16:49:37.530Z,50.85
2018-07-26T16:50:37.526Z,50.85
2018-07-26T16:51:37.524Z,50.73
2018-07-26T16:52:37.519Z,50.85
2018-07-26T16:53:37.521Z,50.73
2018-07-26T16:54:37.520Z,50.85
2018-07-26T16:55:37.510Z,50.82
2018-07-26T16:56:37.509Z,51.02
2018-07-26T16:57:37.531Z,51.12
2018-07-26T16:58:37.585Z,51.12
2018-07-26T16:59:37.496Z,51.21
2018-07-26T17:00:37.497Z,51.21
2018-07-26T17:01:37.491Z,51.14
2018-07-26T17:02:37.487Z,51.14
2018-07-26T17:03:37.484Z,50.85
2018-07-26T17:04:37.481Z,50.82
2018-07-26T17:05:37.477Z,51.02
2018-07-26T17:06:37.475Z,50.92
2018-07-26T17:07:37.476Z,51.02
2018-07-26T17:08:37.467Z,51.02
2018-07-26T17:09:37.466Z,51.02
2018-07-26T17:10:37.473Z,51.02
2018-07-26T17:11:37.458Z,50.92
2018-07-26T17:12:37.455Z,50.92
2018-07-26T17:13:37.503Z,50.92
2018-07-26T17:14:37.450Z,51.02
2018-07-26T17:15:37.445Z,50.92
2018-07-26T17:16:37.441Z,50.82
2018-07-26T17:17:37.443Z,50.73
2018-07-26T17:18:37.464Z,50.73
2018-07-26T17:19:37.440Z,50.73
2018-07-26T17:20:37.429Z,50.82
2018-07-26T17:21:37.430Z,50.82
2018-07-26T17:22:37.423Z,50.73
2018-07-26T17:23:37.445Z,50.82
2018-07-26T17:24:37.416Z,51.12
2018-07-26T17:25:37.416Z,51.12
2018-07-26T17:26:37.409Z,51.12
2018-07-26T17:27:37.404Z,50.82
2018-07-26T17:28:37.405Z,51.02
2018-07-26T17:29:37.402Z,51.12
2018-07-26T17:30:37.399Z,51.12
2018-07-26T17:31:37.391Z,51.21
2018-07-26T17:32:37.388Z,51.12
2018-07-26T17:33:37.387Z,51.12
2018-07-26T17:34:37.385Z,51.31
2018-07-26T17:35:37.423Z,51.12
2018-07-26T17:36:37.376Z,50.92
2018-07-26T17:37:37.376Z,51.21
2018-07-26T17:38:37.370Z,51.21
2018-07-26T17:39:37.365Z,51.21
2018-07-26T17:40:37.363Z,50.73
2018-07-26T17:41:37.359Z,50.92
2018-07-26T17:42:37.356Z,50.73
2018-07-26T17:43:37.367Z,50.82
2018-07-26T17:44:37.348Z,50.92
2018-07-26T17:45:37.366Z,51.31
2018-07-26T17:46:37.344Z,51.12
2018-07-26T17:47:37.340Z,51.12
2018-07-26T17:48:37.339Z,50.92
2018-07-26T17:49:37.335Z,51.02
2018-07-26T17:50:37.329Z,51.12
2018-07-26T17:51:37.326Z,50.92
2018-07-26T17:52:37.328Z,50.92
2018-07-26T17:53:37.321Z,51.02
2018-07-26T17:54:37.318Z,50.92
2018-07-26T17:55:37.313Z,51.02
2018-07-26T17:56:37.358Z,50.92
2018-07-26T17:57:37.306Z,51.41
2018-07-26T17:58:37.305Z,51.02
2018-07-26T17:59:37.299Z,50.92
2018-07-26T18:00:37.294Z,51.02
2018-07-26T18:01:37.292Z,50.92
2018-07-26T18:02:37.293Z,51.02
2018-07-26T18:03:37.286Z,51.31
2018-07-26T18:04:37.353Z,51.12
2018-07-26T18:05:37.283Z,51.02
2018-07-26T18:06:37.276Z,50.73
2018-07-26T18:07:37.271Z,51.12
2018-07-26T18:08:37.269Z,51.02
2018-07-26T18:09:37.267Z,51.12
2018-07-26T18:10:37.263Z,51.12
2018-07-26T18:11:37.258Z,51.02
2018-07-26T18:12:37.254Z,51.12
2018-07-26T18:13:37.250Z,50.92
2018-07-26T18:14:37.248Z,51.02
2018-07-26T18:15:37.249Z,50.82
2018-07-26T18:16:37.251Z,51.02
2018-07-26T18:17:37.237Z,51.02
2018-07-26T18:18:37.238Z,50.92
2018-07-26T18:19:37.234Z,50.92
2018-07-26T18:20:37.228Z,51.02
2018-07-26T18:21:37.227Z,51.02
2018-07-26T18:22:37.221Z,51.02
2018-07-26T18:23:37.219Z,51.02
2018-07-26T18:24:37.221Z,50.82
2018-07-26T18:25:37.248Z,51.12
2018-07-26T18:26:37.209Z,51.02
2018-07-26T18:27:37.206Z,50.82
2018-07-26T18:28:37.203Z,51.12
2018-07-26T18:29:37.201Z,51.02
2018-07-26T18:30:37.196Z,51.02
2018-07-26T18:31:37.276Z,51.12
2018-07-26T18:32:37.188Z,51.02
2018-07-26T18:33:37.185Z,50.82
2018-07-26T18:34:37.188Z,50.92
2018-07-26T18:35:37.227Z,50.92
2018-07-26T18:36:37.173Z,50.82
2018-07-26T18:37:37.170Z,51.02
2018-07-26T18:38:37.167Z,51.31
2018-07-26T18:39:37.162Z,50.92
2018-07-26T18:40:37.162Z,51.41
2018-07-26T18:41:37.166Z,51.21
2018-07-26T18:42:37.156Z,51.51
2018-07-26T18:43:37.160Z,51.21
2018-07-26T18:44:37.152Z,51.31
2018-07-26T18:45:37.143Z,51.31
2018-07-26T18:46:37.146Z,51.41
2018-07-26T18:47:37.135Z,51.02
2018-07-26T18:48:37.133Z,51.41
2018-07-26T18:49:37.167Z,51.41
2018-07-26T18:50:37.127Z,51.41
2018-07-26T18:51:37.123Z,51.41
2018-07-26T18:52:37.165Z,51.41
2018-07-26T18:53:37.115Z,51.61
2018-07-26T18:54:37.116Z,51.41
2018-07-26T18:55:37.115Z,51.39
2018-07-26T18:56:37.105Z,51.19
2018-07-26T18:57:37.102Z,51.31
2018-07-26T18:58:37.102Z,51.29
2018-07-26T18:59:37.095Z,51.41
2018-07-26T19:00:37.091Z,51.12
2018-07-26T19:01:37.088Z,51.12
2018-07-26T19:02:37.085Z,51.19
2018-07-26T19:03:37.080Z,51.31
2018-07-26T19:04:37.080Z,51.31
2018-07-26T19:05:37.072Z,51.29
2018-07-26T19:06:37.071Z,51.29
2018-07-26T19:07:37.070Z,50.92
2018-07-26T19:08:37.099Z,51.12
2018-07-26T19:09:37.064Z,50.92
2018-07-26T19:10:37.059Z,51.09
2018-07-26T19:11:37.053Z,51.21
2018-07-26T19:12:37.050Z,51.09
2018-07-26T19:13:37.047Z,50.80
2018-07-26T19:14:37.043Z,51.09
2018-07-26T19:15:37.040Z,51.31
2018-07-26T19:16:37.037Z,51.29
2018-07-26T19:17:37.038Z,50.90
2018-07-26T19:18:37.029Z,51.29
2018-07-26T19:19:37.022Z,51.48
2018-07-26T19:20:37.021Z,51.19
2018-07-26T19:21:37.026Z,51.48
2018-07-26T19:22:37.025Z,51.58
2018-07-26T19:23:37.015Z,51.39
2018-07-26T19:24:37.014Z,51.48
2018-07-26T19:25:37.005Z,51.19
2018-07-26T19:26:37.003Z,51.48
2018-07-26T19:27:36.997Z,51.29
2018-07-26T19:28:36.993Z,51.29
2018-07-26T19:29:36.988Z,51.39
2018-07-26T19:30:36.987Z,51.48
2018-07-26T19:31:36.982Z,51.39
2018-07-26T19:32:36.979Z,51.48
2018-07-26T19:33:36.978Z,51.39
2018-07-26T19:34:36.975Z,51.48
2018-07-26T19:35:36.977Z,51.39
2018-07-26T19:36:36.965Z,51.48
2018-07-26T19:37:36.963Z,51.48
2018-07-26T19:38:36.968Z,51.58
2018-07-26T19:39:36.955Z,51.39
2018-07-26T19:40:36.957Z,51.58
2018-07-26T19:41:36.949Z,51.48
2018-07-26T19:42:36.943Z,51.78
2018-07-26T19:43:36.943Z,51.78
2018-07-26T19:44:36.940Z,52.26
2018-07-26T19:45:36.935Z,51.68
2018-07-26T19:46:36.932Z,51.48
2018-07-26T19:47:36.928Z,51.58
2018-07-26T19:48:36.923Z,52.36
2018-07-26T19:49:36.918Z,52.17
2018-07-26T19:50:36.920Z,52.17
2018-07-26T19:51:36.911Z,52.07
2018-07-26T19:52:36.910Z,51.68
2018-07-26T19:53:36.911Z,51.97
2018-07-26T19:54:36.903Z,51.97
2018-07-26T19:55:36.897Z,51.58
2018-07-26T19:56:36.893Z,51.87
2018-07-26T19:57:36.890Z,51.87
2018-07-26T19:58:36.885Z,51.68
2018-07-26T19:59:36.883Z,51.48
2018-07-26T20:00:36.881Z,51.87
2018-07-26T20:01:36.876Z,52.17
2018-07-26T20:02:36.874Z,51.75
2018-07-26T20:03:36.869Z,51.87
2018-07-26T20:04:36.863Z,51.87
2018-07-26T20:05:36.861Z,51.87
2018-07-26T20:06:36.861Z,51.87
2018-07-26T20:07:36.858Z,51.97
2018-07-26T20:08:36.854Z,51.87
2018-07-26T20:09:36.856Z,51.58
2018-07-26T20:10:36.846Z,51.85
2018-07-26T20:11:37.663Z,51.68
2018-07-26T20:12:37.504Z,51.68
2018-07-26T20:13:37.413Z,51.65
2018-07-26T20:14:36.829Z,51.56
2018-07-26T20:15:37.962Z,51.75
2018-07-26T20:16:36.831Z,51.56
2018-07-26T20:17:36.820Z,51.34
2018-07-26T20:18:36.817Z,51.24
2018-07-26T20:19:36.827Z,50.82
2018-07-26T20:20:36.809Z,51.21
2018-07-26T20:21:36.808Z,50.73
2018-07-26T20:22:36.825Z,50.92
2018-07-26T20:23:36.799Z,50.70
2018-07-26T20:24:36.797Z,50.31
2018-07-26T20:25:36.794Z,50.31
2018-07-26T20:26:36.784Z,50.19
2018-07-26T20:27:36.780Z,50.29
2018-07-26T20:28:36.778Z,50.29
2018-07-26T20:29:36.770Z,50.29
2018-07-26T20:30:36.769Z,49.41
2018-07-26T20:31:36.765Z,49.51
2018-07-26T20:32:36.761Z,49.22
2018-07-26T20:33:36.756Z,49.39
2018-07-26T20:34:37.953Z,49.00
2018-07-26T20:35:36.750Z,49.00
2018-07-26T20:36:37.106Z,48.80
2018-07-26T20:37:36.742Z,48.61
2018-07-26T20:38:36.736Z,48.61
2018-07-26T20:39:36.728Z,48.68
2018-07-26T20:40:36.727Z,48.88
2018-07-26T20:41:36.723Z,48.88
2018-07-26T20:42:36.720Z,48.97
2018-07-26T20:43:36.714Z,48.58
2018-07-26T20:44:36.706Z,48.58
2018-07-26T20:45:36.715Z,48.27
2018-07-26T20:46:36.699Z,48.18
2018-07-26T20:47:36.753Z,48.47
2018-07-26T20:48:36.698Z,48.18
2018-07-26T20:49:36.821Z,48.75
2018-07-26T20:50:36.719Z,48.85
2018-07-26T20:51:36.676Z,48.57
2018-07-26T20:52:36.849Z,48.44
2018-07-26T20:53:36.666Z,48.44
2018-07-26T20:54:36.666Z,48.44
2018-07-26T20:55:36.657Z,48.35
2018-07-26T20:56:36.693Z,47.96
2018-07-26T20:57:36.653Z,48.05
2018-07-26T20:58:36.643Z,47.86
2018-07-26T20:59:36.660Z,47.96
2018-07-26T21:00:36.637Z,47.86
2018-07-26T21:01:36.629Z,47.86
2018-07-26T21:02:36.621Z,47.76
2018-07-26T21:03:36.616Z,48.15
2018-07-26T21:04:36.614Z,48.15
2018-07-26T21:05:36.735Z,47.76
2018-07-26T21:06:36.605Z,47.66
2018-07-26T21:07:36.599Z,47.66
2018-07-26T21:08:37.942Z,47.47
2018-07-26T21:09:36.588Z,47.66
2018-07-26T21:10:36.586Z,47.38
2018-07-26T21:11:36.583Z,47.28
2018-07-26T21:12:37.256Z,47.18
2018-07-26T21:13:36.568Z,46.98
2018-07-26T21:14:36.579Z,46.60
2018-07-26T21:15:36.561Z,46.69
2018-07-26T21:16:36.559Z,46.79
2018-07-26T21:17:36.548Z,46.79
2018-07-26T21:18:36.546Z,46.98
2018-07-26T21:19:36.540Z,46.98
2018-07-26T21:20:36.534Z,46.98
2018-07-26T21:21:36.524Z,46.89
2018-07-26T21:22:36.524Z,47.18
2018-07-26T21:23:37.107Z,46.41
2018-07-26T21:24:36.515Z,46.79
2018-07-26T21:25:36.514Z,46.41
2018-07-26T21:26:36.504Z,46.89
2018-07-26T21:27:36.496Z,46.98
2018-07-26T21:28:36.491Z,46.79
2018-07-26T21:29:36.486Z,47.08
2018-07-26T21:30:36.487Z,46.89
2018-07-26T21:31:36.494Z,46.98
2018-07-26T21:32:36.473Z,46.79
2018-07-26T21:33:36.483Z,46.79
2018-07-26T21:34:36.569Z,46.89
2018-07-26T21:35:36.457Z,46.79
2018-07-26T21:36:36.455Z,46.69
2018-07-26T21:37:36.446Z,46.89
2018-07-26T21:38:36.474Z,46.98
2018-07-26T21:39:36.785Z,46.69
2018-07-26T21:40:36.439Z,46.69
2018-07-26T21:41:36.423Z,46.69
2018-07-26T21:42:36.420Z,46.79
2018-07-26T21:43:36.418Z,46.89
2018-07-26T21:44:36.413Z,46.89
2018-07-26T21:45:36.405Z,46.79
2018-07-26T21:46:36.399Z,46.98
2018-07-26T21:47:36.394Z,46.69
2018-07-26T21:48:36.386Z,46.79
2018-07-26T21:49:36.382Z,46.69
2018-07-26T21:50:36.382Z,46.79
2018-07-26T21:51:36.371Z,46.79
2018-07-26T21:52:36.366Z,46.79
2018-07-26T21:53:36.361Z,46.79
2018-07-26T21:54:36.356Z,47.35
2018-07-26T21:55:36.352Z,47.06
2018-07-26T21:56:36.346Z,47.25
2018-07-26T21:57:36.340Z,46.96
2018-07-26T21:58:36.337Z,46.86
2018-07-26T21:59:36.327Z,46.86
2018-07-26T22:00:36.327Z,47.35
2018-07-26T22:01:36.317Z,47.35
2018-07-26T22:02:36.388Z,47.35
2018-07-26T22:03:36.309Z,47.35
2018-07-26T22:04:36.300Z,47.35
2018-07-26T22:05:36.307Z,47.35
2018-07-26T22:06:36.294Z,47.35
2018-07-26T22:07:36.295Z,47.28
2018-07-26T22:08:36.298Z,47.35
2018-07-26T22:09:36.278Z,47.38
2018-07-26T22:10:36.274Z,47.38
2018-07-26T22:11:36.268Z,47.28
2018-07-26T22:12:36.265Z,47.38
2018-07-26T22:13:36.260Z,47.38
2018-07-26T22:14:36.288Z,47.47
2018-07-26T22:15:36.251Z,47.38
2018-07-26T22:16:36.245Z,47.28
2018-07-26T22:17:36.258Z,46.89
2018-07-26T22:18:36.237Z,47.28
2018-07-26T22:19:36.234Z,47.08
2018-07-26T22:20:36.236Z,47.28
2018-07-26T22:21:36.224Z,47.38
2018-07-26T22:22:36.223Z,47.38
2018-07-26T22:23:36.216Z,46.89
2018-07-26T22:24:36.211Z,47.38
2018-07-26T22:25:36.206Z,47.28
2018-07-26T22:26:36.201Z,47.38
2018-07-26T22:27:36.197Z,47.38
2018-07-26T22:28:36.192Z,47.47
2018-07-26T22:29:36.191Z,47.08
2018-07-26T22:30:36.186Z,47.08
2018-07-26T22:31:36.188Z,47.66
2018-07-26T22:32:36.173Z,47.28
2018-07-26T22:33:36.174Z,47.38
2018-07-26T22:34:36.168Z,47.66
2018-07-26T22:35:36.161Z,46.98
2018-07-26T22:36:36.158Z,47.08
2018-07-26T22:37:36.154Z,47.76
2018-07-26T22:38:36.151Z,47.40
2018-07-26T22:39:36.146Z,47.59
2018-07-26T22:40:36.141Z,47.59
2018-07-26T22:41:36.137Z,47.69
2018-07-26T22:42:36.134Z,47.78
2018-07-26T22:43:36.136Z,47.59
2018-07-26T22:44:36.128Z,47.78
2018-07-26T22:45:36.124Z,47.59
2018-07-26T22:46:36.120Z,47.69
2018-07-26T22:47:36.118Z,47.40
2018-07-26T22:48:36.105Z,47.49
2018-07-26T22:49:36.106Z,47.59
2018-07-26T22:50:36.099Z,47.98
2018-07-26T22:51:36.097Z,48.18
2018-07-26T22:52:36.094Z,48.08
2018-07-26T22:53:36.100Z,47.88
2018-07-26T22:54:36.095Z,47.78
2018-07-26T22:55:36.082Z,47.88
2018-07-26T22:56:36.081Z,47.98
2018-07-26T22:57:36.074Z,47.88
2018-07-26T22:58:36.070Z,47.98
2018-07-26T22:59:36.068Z,47.78
2018-07-26T23:00:36.063Z,47.88
2018-07-26T23:01:36.060Z,47.88
2018-07-26T23:02:36.056Z,47.98
2018-07-26T23:03:36.051Z,47.78
2018-07-26T23:04:36.048Z,47.88
2018-07-26T23:05:36.044Z,47.78
2018-07-26T23:06:36.052Z,47.78
2018-07-26T23:07:36.040Z,47.88
2018-07-26T23:08:36.035Z,47.69
2018-07-26T23:09:36.042Z,47.98
2018-07-26T23:10:36.026Z,47.88
2018-07-26T23:11:36.022Z,47.88
2018-07-26T23:12:36.017Z,48.27
2018-07-26T23:13:36.011Z,48.37
2018-07-26T23:14:36.013Z,48.57
2018-07-26T23:15:36.016Z,48.57
2018-07-26T23:16:36.004Z,48.57
2018-07-26T23:17:35.998Z,48.08
2018-07-26T23:18:35.996Z,48.37
2018-07-26T23:19:35.989Z,48.18
2018-07-26T23:20:35.984Z,48.18
2018-07-26T23:21:35.988Z,48.27
2018-07-26T23:22:35.980Z,48.37
2018-07-26T23:23:35.978Z,48.75
2018-07-26T23:24:35.974Z,48.75
2018-07-26T23:25:35.970Z,48.27
2018-07-26T23:26:35.975Z,48.08
2018-07-26T23:27:35.969Z,48.57
2018-07-26T23:28:35.958Z,48.18
2018-07-26T23:29:35.955Z,48.37
2018-07-26T23:30:35.952Z,48.47
2018-07-26T23:31:35.945Z,48.08
2018-07-26T23:32:35.984Z,48.27
2018-07-26T23:33:35.939Z,48.08
2018-07-26T23:34:35.934Z,48.47
2018-07-26T23:35:35.929Z,48.18
2018-07-26T23:36:35.928Z,48.18
2018-07-26T23:37:35.924Z,48.47
2018-07-26T23:38:35.921Z,48.37
2018-07-26T23:39:35.925Z,48.27
2018-07-26T23:40:35.917Z,48.37
2018-07-26T23:41:35.912Z,48.47
2018-07-26T23:42:35.906Z,48.08
2018-07-26T23:43:35.902Z,48.47
2018-07-26T23:44:35.900Z,48.47
2018-07-26T23:45:35.898Z,48.27
2018-07-26T23:46:35.893Z,48.18
2018-07-26T23:47:35.888Z,48.47
2018-07-26T23:48:35.883Z,48.75
2018-07-26T23:49:35.880Z,48.37
2018-07-26T23:50:35.879Z,48.75
2018-07-26T23:51:35.879Z,48.37
2018-07-26T23:52:35.868Z,48.37
2018-07-26T23:53:35.867Z,48.47
2018-07-26T23:54:35.865Z,48.27
2018-07-26T23:55:35.860Z,48.18
2018-07-26T23:56:35.856Z,48.47
2018-07-26T23:57:35.857Z,48.37
2018-07-26T23:58:35.850Z,48.18
2018-07-26T23:59:35.844Z,48.27
